Lake Secor, New York
Current Conditions -  °F | °C
As of 8:53 AM on Monday 20 Oct 2014 (Local Time) from KDXR Reporting Station
Few Clouds Few Clouds  
Wind Chill: 38°   Ceiling: Unl
Heat Index: 41°   Visibility: 10mi
Dew Point: 30°   Wind: 5mph
Humidity: 65%   Direction: 250°WSW
Pressure: 30.11"   Gusts: NA
Location:  41.3759°N, 73.7482°W
Report Text: KDXR 201253Z 25004KT 10SM FEW120 05/M01 A3011 RMK AO2 SLP198 T00501011
Loading
Personal Weather Stations






























Interactive Weather Map
Tropical Storm Tracking
New forecast layout! Learn more

10-Day Weather Forecast

Advertisements
Track Severe Weather on mobile